Albany, Vermont
Current Conditions -  °F | °C
As of 4:15 PM on Saturday 20 Dec 2014 (Local Time) from KEFK Reporting Station
Clear Clear  
Wind Chill: 17°   Ceiling: Unl
Heat Index: 17°   Visibility: 10mi
Dew Point: 12°   Wind: 3mph
Humidity: 82%   Direction: 330°NNW
Pressure: 30.27"   Gusts: NA
Location:  44.73°N, 72.38°W
Report Text: KEFK 202115Z AUTO 33003KT 10SM CLR M08/M11 A3027 RMK AO2 T10841110
Loading
Personal Weather Stations






























Interactive Weather Map New forecast layout! Learn more

10-Day Weather Forecast

Advertisements
Track Severe Weather on mobile